Ummern Airfield

DE-0130 · 下萨克森, 德国

罗盘
风向 的 风向 250°
风: 2 kt, 1 beaufort

添加一条跑道以查看侧风和逆风信息。

添置 跑道
0 ft 1.000 2.000 3.000 4.000 5.000
Cloud Cloud
FEW 600
Cloud Cloud Cloud Cloud Cloud Cloud
BKN 3.100
METAR ETHC 052258Z 25002KT 9999 FEW006 BKN031 01/01 Q1040 BLU

METAR Ummern Airfield - DE-0130

Ummern Airfield是,德国中的小机场。 视场标高为237 ft。 该领域的国际民航组织标志是DE-0130.

这份报告是针对2023年2月5日 23:58, 当地时间在Celle Army Airfield进行的。

机场观察

风向为250°,速度为2 kt。

可见度为10 km 或者更多。

有几云在600 ft的高度 和 碎云在3.100 ft的高度。 破损或更高的上限为3.100 ft。

温度为1 °C,阵风为-1 °C。 露点为1 °C,相对湿度为100%。 海平面上的气压为1040 hPa (QNH)。

白天

今天,太阳从07:53升起,在17:10降落。 这适用于Ummern Airfield,世界夏令时可能有所不同。 当地时间与世界标准时间之间的时差为+1 小时。 当前,没有夏令时有效。

公司介绍

我们没有关于这个机场的公司信息。

体会

到Vliegles.nl去找飞行课程,跳伞和其他飞行体验。 浏览页面,了解Ummern Airfield附近所有可用的活动。 你也可以使用搜索功能来寻找你所在地附近的特定飞行课程、跳伞或其他飞行体验。

乌云

600 ft FEW 几云
3.100 ft BKN 碎云

温度 & 天气

温度 1 °C
露点 1 °C
相对湿度 100%
风寒 -1 °C
Kp-index 1 (0-9)

白天

日出
07:55 (7:26)
中午
12:33
日落
17:12

小工具

你想在你的网站上有一个关于Ummern Airfield的当前航空天气(METAR)的小部件吗?

显示HTML代码

我们和第三方通过cookies跟踪您在我们网站上的互联网行为。如果你继续,我们认为你同意我们的饼干政策